Time;durP1;ratioP1;P1;durP2;ratioP2;P2;SDS_P1;SDS_P2;PMS_P1;PMS_P2;Temp;Humidity;BMP_temperature;BMP_pressure;BME280_temperature;BME280_humidity;BME280_pressure;Samples;Min_cycle;Max_cycle;Signal;HPM_P1;HPM_P2
2022/08/29 00:01:44;;;;;;;0.40;0.40;;;;;;;;;;6190788;23;20176;-81
2022/08/29 00:04:13;;;;;;;0.90;0.90;;;;;;;;;;6190452;23;20195;-81
2022/08/29 00:06:42;;;;;;;0.40;0.40;;;;;;;;;;6190842;23;20266;-81
2022/08/29 00:09:10;;;;;;;0.40;0.40;;;;;;;;;;6191248;23;20182;-81
2022/08/29 00:11:40;;;;;;;0.40;0.40;;;;;;;;;;6190623;23;20181;-81
2022/08/29 00:14:14;;;;;;;0.40;0.40;;;;;;;;;;6190623;23;20201;-81
2022/08/29 00:16:50;;;;;;;0.70;0.70;;;;;;;;;;6216856;23;20174;-81
2022/08/29 00:19:19;;;;;;;0.50;0.50;;;;;;;;;;6190692;23;20178;-81
2022/08/29 00:21:50;;;;;;;0.40;0.40;;;;;;;;;;6190330;23;20201;-81
2022/08/29 00:24:22;;;;;;;0.40;0.40;;;;;;;;;;6190312;23;20182;-81
2022/08/29 00:26:52;;;;;;;0.60;0.60;;;;;;;;;;6216955;23;20198;-81
2022/08/29 00:29:20;;;;;;;0.40;0.40;;;;;;;;;;6190289;23;20261;-81
2022/08/29 00:31:48;;;;;;;0.60;0.60;;;;;;;;;;6190328;23;20170;-81
2022/08/29 00:34:17;;;;;;;0.97;0.97;;;;;;;;;;6190155;23;20174;-81
2022/08/29 00:36:45;;;;;;;0.43;0.43;;;;;;;;;;6190312;23;20194;-81
2022/08/29 00:39:16;;;;;;;0.60;0.60;;;;;;;;;;6216800;23;20253;-81
2022/08/29 00:41:52;;;;;;;1.23;1.23;;;;;;;;;;6189794;23;20202;-81
2022/08/29 00:44:20;;;;;;;0.40;0.40;;;;;;;;;;6190040;23;20177;-81
2022/08/29 00:46:51;;;;;;;0.40;0.40;;;;;;;;;;6216597;23;20180;-81
2022/08/29 00:49:25;;;;;;;0.40;0.40;;;;;;;;;;6217152;23;20208;-81
2022/08/29 00:51:54;;;;;;;0.40;0.40;;;;;;;;;;6216754;23;20169;-81
2022/08/29 00:54:24;;;;;;;0.50;0.50;;;;;;;;;;6216432;23;20172;-81
2022/08/29 00:56:54;;;;;;;0.40;0.40;;;;;;;;;;6190318;23;20182;-81
2022/08/29 00:59:24;;;;;;;0.40;0.40;;;;;;;;;;6190185;23;20175;-81
2022/08/29 01:01:55;;;;;;;0.40;0.40;;;;;;;;;;6189998;23;20190;-81
2022/08/29 01:04:23;;;;;;;0.57;0.57;;;;;;;;;;6190096;23;20182;-81
2022/08/29 01:06:52;;;;;;;0.50;0.50;;;;;;;;;;6216619;23;20182;-81
2022/08/29 01:09:20;;;;;;;0.40;0.40;;;;;;;;;;6190188;23;20175;-81
2022/08/29 01:14:37;;;;;;;0.73;0.73;;;;;;;;;;6216467;23;20249;-81
2022/08/29 01:17:07;;;;;;;0.40;0.40;;;;;;;;;;6190362;23;20240;-81
2022/08/29 01:19:40;;;;;;;0.50;0.50;;;;;;;;;;6190416;23;20181;-81
2022/08/29 01:22:12;;;;;;;0.40;0.40;;;;;;;;;;6216480;23;20264;-81
2022/08/29 01:24:44;;;;;;;0.40;0.40;;;;;;;;;;6190049;23;20182;-81
2022/08/29 01:27:14;;;;;;;0.63;0.63;;;;;;;;;;6190144;23;20178;-81
2022/08/29 01:29:42;;;;;;;0.40;0.40;;;;;;;;;;6165232;23;20175;-81
2022/08/29 01:32:11;;;;;;;0.40;0.40;;;;;;;;;;6216359;23;20196;-81
2022/08/29 01:34:40;;;;;;;0.40;0.40;;;;;;;;;;6216135;23;20170;-81
2022/08/29 01:37:10;;;;;;;0.50;0.50;;;;;;;;;;6189835;23;20178;-81
2022/08/29 01:39:39;;;;;;;0.40;0.40;;;;;;;;;;6216026;23;20174;-81
2022/08/29 01:42:11;;;;;;;0.40;0.40;;;;;;;;;;6216022;23;20202;-81
2022/08/29 01:44:40;;;;;;;0.40;0.40;;;;;;;;;;6189938;23;20185;-81
2022/08/29 01:47:10;;;;;;;0.40;0.40;;;;;;;;;;6189622;23;20187;-81
2022/08/29 01:49:38;;;;;;;0.40;0.40;;;;;;;;;;6216098;23;20175;-81
2022/08/29 01:52:08;;;;;;;0.30;0.30;;;;;;;;;;6189792;23;20234;-81
2022/08/29 01:54:37;;;;;;;0.77;0.77;;;;;;;;;;6215998;23;20178;-81
2022/08/29 01:57:06;;;;;;;0.97;0.97;;;;;;;;;;6189813;23;20181;-81
2022/08/29 01:59:41;;;;;;;0.33;0.33;;;;;;;;;;6216176;23;20240;-81
2022/08/29 02:02:15;;;;;;;0.40;0.40;;;;;;;;;;6189104;23;20205;-81
2022/08/29 02:04:44;;;;;;;0.40;0.40;;;;;;;;;;6216231;23;20180;-81
2022/08/29 02:07:12;;;;;;;4.43;1.03;;;;;;;;;;6189484;23;20181;-81
2022/08/29 02:09:43;;;;;;;0.80;0.80;;;;;;;;;;6189354;23;20177;-81
2022/08/29 02:12:13;;;;;;;0.40;0.40;;;;;;;;;;6189543;23;20223;-81
2022/08/29 02:14:43;;;;;;;0.70;0.70;;;;;;;;;;6189564;23;20268;-81
2022/08/29 02:17:12;;;;;;;0.50;0.50;;;;;;;;;;6215660;23;20170;-81
2022/08/29 02:19:40;;;;;;;0.50;0.50;;;;;;;;;;6215645;23;20177;-81
2022/08/29 02:22:09;;;;;;;0.40;0.40;;;;;;;;;;6189059;23;20198;-81
2022/08/29 02:24:38;;;;;;;0.80;0.80;;;;;;;;;;6189374;23;20174;-81
2022/08/29 02:27:06;;;;;;;0.40;0.40;;;;;;;;;;6189720;23;20181;-81
2022/08/29 02:29:37;;;;;;;0.40;0.40;;;;;;;;;;6215753;23;20198;-81
2022/08/29 02:32:11;;;;;;;0.30;0.30;;;;;;;;;;6188217;23;20180;-81
2022/08/29 02:34:42;;;;;;;0.60;0.60;;;;;;;;;;6188552;23;20181;-81
2022/08/29 02:37:15;;;;;;;0.50;0.50;;;;;;;;;;6188960;23;20170;-81
2022/08/29 02:39:44;;;;;;;1.47;1.47;;;;;;;;;;6215502;23;20176;-81
2022/08/29 02:42:12;;;;;;;1.20;1.20;;;;;;;;;;6188922;23;20210;-80
2022/08/29 02:44:41;;;;;;;3.20;0.93;;;;;;;;;;6215680;23;20253;-81
2022/08/29 02:47:11;;;;;;;0.60;0.60;;;;;;;;;;6189451;23;20253;-81
2022/08/29 02:49:39;;;;;;;0.40;0.40;;;;;;;;;;6189673;23;20175;-81
2022/08/29 02:52:08;;;;;;;0.30;0.30;;;;;;;;;;6189428;23;20171;-81
2022/08/29 02:54:36;;;;;;;0.63;0.63;;;;;;;;;;6215831;23;20253;-81
2022/08/29 02:57:05;;;;;;;0.90;0.90;;;;;;;;;;6189076;23;20186;-81
2022/08/29 02:59:33;;;;;;;0.87;0.87;;;;;;;;;;6188968;23;20272;-81
2022/08/29 03:02:02;;;;;;;0.87;0.87;;;;;;;;;;6188705;23;20197;-81
2022/08/29 03:04:32;;;;;;;0.60;0.60;;;;;;;;;;6189466;23;20174;-81
2022/08/29 03:07:00;;;;;;;0.40;0.40;;;;;;;;;;6215635;23;20217;-81
2022/08/29 03:09:29;;;;;;;0.77;0.77;;;;;;;;;;6188969;23;20208;-81
2022/08/29 03:11:57;;;;;;;0.40;0.40;;;;;;;;;;6188654;23;20182;-81
2022/08/29 03:14:26;;;;;;;0.40;0.40;;;;;;;;;;6189482;23;20181;-81
2022/08/29 03:16:57;;;;;;;0.33;0.33;;;;;;;;;;6215722;23;20173;-81
2022/08/29 03:19:25;;;;;;;0.30;0.30;;;;;;;;;;6188977;23;20248;-81
2022/08/29 03:21:55;;;;;;;0.40;0.40;;;;;;;;;;6215092;23;20190;-81
2022/08/29 03:24:24;;;;;;;3.30;0.77;;;;;;;;;;6189263;23;20189;-81
2022/08/29 03:26:54;;;;;;;0.77;0.77;;;;;;;;;;6215257;23;20221;-82
2022/08/29 03:29:24;;;;;;;0.50;0.50;;;;;;;;;;6188894;23;20175;-81
2022/08/29 03:31:57;;;;;;;0.30;0.30;;;;;;;;;;6189180;23;20265;-81
2022/08/29 03:34:26;;;;;;;0.40;0.40;;;;;;;;;;6188952;23;20236;-81
2022/08/29 03:36:56;;;;;;;0.30;0.30;;;;;;;;;;6215346;23;20250;-81
2022/08/29 03:39:24;;;;;;;2.20;2.10;;;;;;;;;;6188840;23;20189;-81
2022/08/29 03:41:53;;;;;;;0.40;0.40;;;;;;;;;;6188630;23;20210;-81
2022/08/29 03:44:22;;;;;;;0.30;0.30;;;;;;;;;;6215267;23;20252;-81
2022/08/29 03:46:50;;;;;;;0.47;0.47;;;;;;;;;;6188626;23;20174;-81
2022/08/29 03:49:19;;;;;;;0.80;0.80;;;;;;;;;;6215397;23;20181;-81
2022/08/29 03:51:48;;;;;;;0.63;0.63;;;;;;;;;;6188987;23;20172;-81
2022/08/29 03:54:18;;;;;;;3.50;1.90;;;;;;;;;;6189149;23;20181;-81
2022/08/29 03:56:47;;;;;;;0.40;0.40;;;;;;;;;;6215189;23;20174;-81
2022/08/29 03:59:19;;;;;;;0.53;0.53;;;;;;;;;;6188850;23;20186;-81
2022/08/29 04:01:47;;;;;;;0.30;0.30;;;;;;;;;;6215083;23;20186;-80
2022/08/29 04:06:58;;;;;;;1.27;1.17;;;;;;;;;;6187469;23;20191;-81
2022/08/29 04:09:28;;;;;;;1.17;1.17;;;;;;;;;;6215171;23;20177;-81
2022/08/29 04:11:57;;;;;;;0.40;0.40;;;;;;;;;;6190543;23;20258;-81
2022/08/29 04:14:25;;;;;;;0.60;0.60;;;;;;;;;;6216981;23;20198;-81
2022/08/29 04:16:54;;;;;;;0.60;0.60;;;;;;;;;;6217148;23;20175;-81
2022/08/29 04:19:22;;;;;;;0.40;0.40;;;;;;;;;;6216932;23;20249;-81
2022/08/29 04:21:51;;;;;;;0.77;0.77;;;;;;;;;;6190399;23;20201;-81
2022/08/29 04:24:19;;;;;;;0.40;0.40;;;;;;;;;;6190284;23;20174;-81
2022/08/29 04:26:49;;;;;;;0.47;0.47;;;;;;;;;;6190379;23;20177;-81
2022/08/29 04:29:18;;;;;;;1.10;0.77;;;;;;;;;;6190862;23;20178;-81
2022/08/29 04:31:49;;;;;;;0.73;0.60;;;;;;;;;;6190438;23;20221;-81
2022/08/29 04:34:17;;;;;;;0.30;0.30;;;;;;;;;;6190333;23;20178;-81
2022/08/29 04:36:46;;;;;;;0.30;0.30;;;;;;;;;;6190088;23;20202;-81
2022/08/29 04:39:15;;;;;;;0.30;0.30;;;;;;;;;;6216737;23;20217;-81
2022/08/29 04:41:44;;;;;;;0.30;0.30;;;;;;;;;;6190020;23;20205;-81
2022/08/29 04:44:14;;;;;;;0.40;0.40;;;;;;;;;;6190179;23;20200;-81
2022/08/29 04:46:44;;;;;;;1.50;1.13;;;;;;;;;;6190257;23;20194;-81
2022/08/29 04:49:12;;;;;;;0.57;0.57;;;;;;;;;;6216671;23;20167;-77
2022/08/29 04:51:41;;;;;;;0.40;0.40;;;;;;;;;;6190378;23;20248;-81
2022/08/29 04:54:10;;;;;;;0.40;0.40;;;;;;;;;;6190184;23;20181;-82
2022/08/29 04:56:39;;;;;;;0.40;0.40;;;;;;;;;;6190304;23;20222;-81
2022/08/29 04:59:16;;;;;;;0.40;0.40;;;;;;;;;;6190090;23;20169;-81
2022/08/29 05:01:47;;;;;;;0.40;0.40;;;;;;;;;;6216510;23;20174;-82
2022/08/29 05:04:16;;;;;;;0.50;0.50;;;;;;;;;;6190306;23;20203;-81
2022/08/29 05:06:44;;;;;;;1.80;1.80;;;;;;;;;;6189900;23;20175;-82
2022/08/29 05:09:13;;;;;;;0.83;0.83;;;;;;;;;;6216337;23;20205;-82
2022/08/29 05:11:46;;;;;;;0.30;0.30;;;;;;;;;;6216235;23;20178;-81
2022/08/29 05:14:22;;;;;;;1.90;1.23;;;;;;;;;;6190337;23;20174;-82
2022/08/29 05:16:50;;;;;;;0.50;0.50;;;;;;;;;;6190654;23;20174;-82
2022/08/29 05:19:21;;;;;;;0.30;0.30;;;;;;;;;;6189871;23;20179;-82
2022/08/29 05:21:55;;;;;;;0.40;0.40;;;;;;;;;;6215689;23;20182;-82
2022/08/29 05:24:24;;;;;;;0.30;0.30;;;;;;;;;;6216198;23;20198;-82
2022/08/29 05:26:53;;;;;;;0.30;0.30;;;;;;;;;;6189781;23;20178;-82
2022/08/29 05:29:23;;;;;;;0.30;0.30;;;;;;;;;;6216395;23;20177;-82
2022/08/29 05:31:52;;;;;;;0.30;0.30;;;;;;;;;;6190152;23;20171;-82
2022/08/29 05:34:20;;;;;;;0.30;0.30;;;;;;;;;;6216343;23;20177;-82
2022/08/29 05:37:03;;;;;;;3.10;2.70;;;;;;;;;;6190380;23;20175;-82
2022/08/29 05:39:31;;;;;;;0.30;0.30;;;;;;;;;;6215928;23;20241;-82
2022/08/29 05:42:00;;;;;;;0.33;0.33;;;;;;;;;;6189611;23;20216;-82
2022/08/29 05:44:31;;;;;;;0.60;0.60;;;;;;;;;;6189601;23;20194;-82
2022/08/29 05:47:03;;;;;;;1.27;1.27;;;;;;;;;;6189741;23;20182;-82
2022/08/29 05:49:32;;;;;;;0.37;0.37;;;;;;;;;;6189293;23;20174;-82
2022/08/29 05:52:00;;;;;;;0.73;0.73;;;;;;;;;;6189658;23;20186;-83
2022/08/29 05:54:33;;;;;;;0.67;0.67;;;;;;;;;;6190056;23;20174;-83
2022/08/29 05:57:01;;;;;;;0.40;0.40;;;;;;;;;;6216146;23;20244;-82
2022/08/29 05:59:33;;;;;;;0.40;0.40;;;;;;;;;;6215962;23;20293;-82
2022/08/29 06:02:02;;;;;;;1.37;0.93;;;;;;;;;;6189983;23;20179;-82
2022/08/29 06:04:30;;;;;;;0.30;0.30;;;;;;;;;;6189723;23;20194;-83
2022/08/29 06:06:59;;;;;;;1.70;1.27;;;;;;;;;;6216135;23;20178;-83
2022/08/29 06:09:28;;;;;;;0.40;0.40;;;;;;;;;;6189368;23;20266;-83
2022/08/29 06:11:57;;;;;;;4.83;2.93;;;;;;;;;;6215967;23;20170;-83
2022/08/29 06:14:29;;;;;;;0.30;0.30;;;;;;;;;;6189408;23;20238;-83
2022/08/29 06:16:59;;;;;;;0.30;0.30;;;;;;;;;;6215988;23;20181;-82
2022/08/29 06:19:33;;;;;;;0.30;0.30;;;;;;;;;;6188761;23;20193;-83
2022/08/29 06:22:05;;;;;;;0.40;0.40;;;;;;;;;;6216167;23;20174;-83
2022/08/29 06:24:38;;;;;;;0.60;0.60;;;;;;;;;;6189743;23;20195;-83
2022/08/29 06:27:06;;;;;;;0.60;0.60;;;;;;;;;;6216135;23;20170;-83
2022/08/29 06:29:35;;;;;;;0.37;0.37;;;;;;;;;;6189828;23;20175;-82
2022/08/29 06:32:12;;;;;;;0.40;0.40;;;;;;;;;;6189357;23;20177;-82
2022/08/29 06:34:41;;;;;;;0.30;0.30;;;;;;;;;;6188861;23;20197;-83
2022/08/29 06:37:09;;;;;;;0.30;0.30;;;;;;;;;;6216005;23;20226;-83
2022/08/29 06:39:38;;;;;;;2.53;0.63;;;;;;;;;;6215901;23;20173;-83
2022/08/29 06:42:11;;;;;;;0.33;0.33;;;;;;;;;;6189103;23;20292;-82
2022/08/29 06:44:46;;;;;;;0.30;0.30;;;;;;;;;;6188847;23;20187;-83
2022/08/29 06:47:16;;;;;;;0.83;0.83;;;;;;;;;;6216373;23;20174;-83
2022/08/29 06:49:52;;;;;;;0.33;0.33;;;;;;;;;;6189576;23;20184;-82
2022/08/29 06:52:38;;;;;;;0.53;0.53;;;;;;;;;;6175895;23;20212;-82
2022/08/29 06:55:10;;;;;;;0.30;0.30;;;;;;;;;;6215470;23;20254;-83
2022/08/29 06:57:43;;;;;;;0.40;0.40;;;;;;;;;;6215761;23;20195;-83
2022/08/29 07:00:17;;;;;;;0.47;0.47;;;;;;;;;;6188952;23;20216;-84
2022/08/29 07:02:52;;;;;;;0.30;0.30;;;;;;;;;;6215450;23;20166;-83
2022/08/29 07:05:21;;;;;;;0.30;0.30;;;;;;;;;;6215711;23;20195;-83
2022/08/29 07:07:49;;;;;;;0.43;0.43;;;;;;;;;;6215647;23;20196;-83
2022/08/29 07:10:20;;;;;;;0.40;0.40;;;;;;;;;;6188715;23;20208;-83
2022/08/29 07:12:52;;;;;;;0.83;0.80;;;;;;;;;;6189363;23;20256;-83
2022/08/29 07:15:27;;;;;;;0.47;0.47;;;;;;;;;;6215213;23;20170;-83
2022/08/29 07:17:57;;;;;;;0.50;0.50;;;;;;;;;;6215353;23;20200;-83
2022/08/29 07:20:27;;;;;;;0.30;0.30;;;;;;;;;;6189091;23;20181;-83
2022/08/29 07:22:56;;;;;;;8.20;1.63;;;;;;;;;;6189260;23;20183;-83
2022/08/29 07:25:26;;;;;;;1.63;1.03;;;;;;;;;;6215269;23;20336;-83
2022/08/29 07:27:56;;;;;;;0.50;0.50;;;;;;;;;;6215562;23;20178;-83
2022/08/29 07:30:25;;;;;;;0.50;0.50;;;;;;;;;;6189437;23;20204;-83
2022/08/29 07:32:54;;;;;;;5.10;3.57;;;;;;;;;;6188835;23;20185;-83
2022/08/29 07:35:26;;;;;;;0.50;0.50;;;;;;;;;;6215288;23;20199;-83
2022/08/29 07:37:59;;;;;;;0.67;0.67;;;;;;;;;;6189315;23;20174;-83
2022/08/29 07:40:29;;;;;;;2.77;0.83;;;;;;;;;;6189050;23;20181;-84
2022/08/29 07:42:57;;;;;;;0.73;0.73;;;;;;;;;;6187772;23;20232;-82
2022/08/29 07:45:30;;;;;;;1.97;0.90;;;;;;;;;;6215461;23;20196;-83
2022/08/29 07:48:05;;;;;;;1.87;1.17;;;;;;;;;;6188125;23;20178;-83
2022/08/29 07:50:42;;;;;;;5.63;1.07;;;;;;;;;;6215377;23;20169;-84
2022/08/29 07:53:13;;;;;;;0.90;0.90;;;;;;;;;;6184609;23;20189;-84
2022/08/29 07:55:46;;;;;;;0.60;0.60;;;;;;;;;;6188147;23;20180;-84
2022/08/29 07:58:18;;;;;;;0.57;0.57;;;;;;;;;;6189522;23;20192;-83
2022/08/29 08:00:46;;;;;;;0.30;0.30;;;;;;;;;;6189688;23;20259;-84
2022/08/29 08:03:20;;;;;;;2.73;2.03;;;;;;;;;;6188213;23;20185;-85
2022/08/29 08:05:50;;;;;;;0.60;0.60;;;;;;;;;;6188084;23;20194;-83
2022/08/29 08:08:19;;;;;;;1.80;1.37;;;;;;;;;;6187886;23;20240;-83
2022/08/29 08:10:48;;;;;;;0.67;0.67;;;;;;;;;;6215668;23;20170;-84
2022/08/29 08:13:20;;;;;;;4.60;1.57;;;;;;;;;;6186920;23;20212;-83
2022/08/29 08:15:48;;;;;;;1.47;1.20;;;;;;;;;;6187536;23;20173;-83
2022/08/29 08:18:21;;;;;;;1.13;0.87;;;;;;;;;;6188334;23;20264;-84
2022/08/29 08:20:50;;;;;;;2.33;0.90;;;;;;;;;;6189539;23;20185;-84
2022/08/29 08:23:19;;;;;;;1.27;1.10;;;;;;;;;;6188369;23;20205;-84
2022/08/29 08:25:50;;;;;;;0.77;0.77;;;;;;;;;;6189031;23;20200;-84
2022/08/29 08:28:19;;;;;;;0.93;0.87;;;;;;;;;;6189100;23;20177;-83
2022/08/29 08:30:47;;;;;;;0.97;0.97;;;;;;;;;;6186809;23;20190;-83
2022/08/29 08:33:16;;;;;;;1.83;1.20;;;;;;;;;;6187860;23;20178;-83
2022/08/29 08:35:44;;;;;;;1.17;1.03;;;;;;;;;;6216244;23;20246;-82
2022/08/29 08:38:16;;;;;;;0.63;0.63;;;;;;;;;;6215384;23;20171;-83
2022/08/29 08:40:48;;;;;;;0.80;0.60;;;;;;;;;;6190283;23;20174;-83
2022/08/29 08:43:19;;;;;;;1.53;1.43;;;;;;;;;;6190344;23;20210;-84
2022/08/29 08:46:00;;;;;;;0.60;0.60;;;;;;;;;;6216918;23;20268;-83
2022/08/29 08:48:34;;;;;;;1.50;0.97;;;;;;;;;;6190144;23;20178;-87
2022/08/29 08:51:06;;;;;;;0.83;0.83;;;;;;;;;;6190037;23;20178;-82
2022/08/29 08:53:38;;;;;;;1.63;0.90;;;;;;;;;;6189593;23;20175;-84
2022/08/29 08:56:12;;;;;;;1.17;0.77;;;;;;;;;;6191308;23;20174;-84
2022/08/29 08:58:49;;;;;;;0.77;0.77;;;;;;;;;;6214127;23;20179;-83
2022/08/29 09:01:23;;;;;;;1.37;0.90;;;;;;;;;;6186057;23;20209;-83
2022/08/29 09:04:12;;;;;;;1.10;1.10;;;;;;;;;;6188821;23;20167;-83
2022/08/29 09:06:50;;;;;;;0.53;0.53;;;;;;;;;;6214735;23;20174;-83
2022/08/29 09:09:27;;;;;;;0.67;0.67;;;;;;;;;;6188791;23;20175;-83
2022/08/29 09:12:00;;;;;;;1.23;0.90;;;;;;;;;;6213419;23;20167;-83
2022/08/29 09:14:37;;;;;;;0.73;0.73;;;;;;;;;;6214579;23;20172;-82
2022/08/29 09:17:08;;;;;;;1.03;0.87;;;;;;;;;;6187789;23;20286;-81
2022/08/29 09:19:36;;;;;;;0.50;0.50;;;;;;;;;;6188901;23;20181;-82
2022/08/29 09:22:08;;;;;;;0.43;0.43;;;;;;;;;;6189575;23;20189;-81
2022/08/29 09:24:52;;;;;;;0.40;0.40;;;;;;;;;;6188970;23;20192;-81
2022/08/29 09:27:37;;;;;;;1.53;1.43;;;;;;;;;;6185807;23;20185;-82
2022/08/29 09:30:08;;;;;;;0.40;0.40;;;;;;;;;;6188264;23;20183;-83
2022/08/29 09:32:52;;;;;;;0.83;0.83;;;;;;;;;;6213631;23;20180;-83
2022/08/29 09:35:30;;;;;;;0.60;0.60;;;;;;;;;;6186012;23;20195;-82
2022/08/29 09:38:10;;;;;;;1.20;1.10;;;;;;;;;;6188283;23;20179;-83
2022/08/29 09:40:46;;;;;;;0.50;0.50;;;;;;;;;;6188708;23;20183;-83
2022/08/29 09:43:23;;;;;;;3.07;0.70;;;;;;;;;;6164220;23;20265;-84
2022/08/29 09:46:23;;;;;;;2.07;1.03;;;;;;;;;;6154963;23;20218;-83
2022/08/29 09:48:54;;;;;;;0.73;0.73;;;;;;;;;;6011563;23;20277;-82
2022/08/29 09:51:28;;;;;;;0.50;0.50;;;;;;;;;;6134313;23;20211;-84
2022/08/29 09:54:11;;;;;;;0.80;0.80;;;;;;;;;;6159597;23;20183;-84
2022/08/29 09:56:40;;;;;;;2.50;1.73;;;;;;;;;;6158537;23;20201;-84
2022/08/29 09:59:21;;;;;;;0.70;0.50;;;;;;;;;;6158270;23;20205;-84
2022/08/29 10:01:50;;;;;;;0.40;0.40;;;;;;;;;;6156804;23;20210;-84
2022/08/29 10:04:35;;;;;;;0.37;0.37;;;;;;;;;;6157444;23;20239;-85
2022/08/29 10:07:11;;;;;;;0.60;0.60;;;;;;;;;;6157216;23;20176;-85
2022/08/29 10:09:59;;;;;;;0.90;0.90;;;;;;;;;;6155682;23;20185;-85
2022/08/29 10:12:34;;;;;;;2.20;1.40;;;;;;;;;;6156212;23;20232;-85
2022/08/29 10:15:11;;;;;;;7.27;1.90;;;;;;;;;;6183280;23;20201;-84
2022/08/29 10:18:22;;;;;;;0.87;0.70;;;;;;;;;;6156336;23;20186;-84
2022/08/29 10:20:56;;;;;;;3.77;1.37;;;;;;;;;;6157178;23;20211;-84
2022/08/29 10:23:31;;;;;;;4.43;0.87;;;;;;;;;;6157078;23;20180;-83
2022/08/29 10:26:06;;;;;;;1.90;1.07;;;;;;;;;;6182656;23;20226;-84
2022/08/29 10:28:40;;;;;;;0.37;0.37;;;;;;;;;;6156430;23;20179;-83
2022/08/29 10:31:14;;;;;;;17.83;1.07;;;;;;;;;;6182869;23;20172;-84
2022/08/29 10:33:55;;;;;;;1.00;0.83;;;;;;;;;;6157571;23;20188;-84
2022/08/29 10:36:30;;;;;;;2.57;0.80;;;;;;;;;;6156545;23;20196;-84
2022/08/29 10:39:03;;;;;;;0.77;0.77;;;;;;;;;;6159646;23;20180;-84
2022/08/29 10:41:34;;;;;;;2.00;1.07;;;;;;;;;;6161926;23;20234;-85
2022/08/29 10:44:17;;;;;;;0.30;0.30;;;;;;;;;;6188054;23;20259;-84
2022/08/29 10:46:54;;;;;;;0.63;0.60;;;;;;;;;;6186071;23;20285;-85
2022/08/29 10:49:45;;;;;;;0.60;0.60;;;;;;;;;;6187910;23;20181;-84
2022/08/29 10:52:28;;;;;;;2.00;1.30;;;;;;;;;;6186403;23;20180;-84
2022/08/29 10:55:10;;;;;;;0.40;0.40;;;;;;;;;;6187321;23;20176;-84
2022/08/29 10:58:08;;;;;;;0.40;0.40;;;;;;;;;;6185442;23;20182;-83
2022/08/29 11:00:44;;;;;;;0.90;0.87;;;;;;;;;;6185726;23;20176;-83
2022/08/29 11:03:34;;;;;;;3.47;1.73;;;;;;;;;;6185111;23;20203;-83
2022/08/29 11:06:15;;;;;;;0.67;0.67;;;;;;;;;;6188536;23;20199;-83
2022/08/29 11:09:26;;;;;;;0.63;0.50;;;;;;;;;;6188223;23;20183;-83
2022/08/29 11:12:08;;;;;;;0.60;0.60;;;;;;;;;;6211011;23;20231;-84
2022/08/29 11:14:51;;;;;;;2.43;1.40;;;;;;;;;;6186992;23;20176;-84
2022/08/29 11:17:25;;;;;;;0.60;0.60;;;;;;;;;;6184663;23;20168;-83
2022/08/29 11:20:03;;;;;;;0.70;0.70;;;;;;;;;;6213580;23;20197;-84
2022/08/29 11:22:36;;;;;;;0.67;0.67;;;;;;;;;;6190623;23;20181;-84
2022/08/29 11:25:07;;;;;;;0.43;0.43;;;;;;;;;;6190275;23;20190;-83
2022/08/29 11:27:52;;;;;;;1.37;0.97;;;;;;;;;;6215600;23;20195;-84
2022/08/29 11:30:28;;;;;;;1.80;1.13;;;;;;;;;;6216957;23;20169;-82
2022/08/29 11:33:03;;;;;;;5.83;1.83;;;;;;;;;;6190441;23;20179;-84
2022/08/29 11:35:36;;;;;;;3.53;1.70;;;;;;;;;;6214187;23;20201;-84
2022/08/29 11:38:16;;;;;;;4.57;1.20;;;;;;;;;;6188661;23;20188;-85
2022/08/29 11:41:03;;;;;;;2.20;1.67;;;;;;;;;;6188236;23;20181;-82
2022/08/29 11:43:57;;;;;;;2.30;2.17;;;;;;;;;;6212617;23;20184;-82
2022/08/29 11:46:51;;;;;;;5.83;2.20;;;;;;;;;;6188168;23;20197;-83
2022/08/29 11:49:44;;;;;;;3.23;1.10;;;;;;;;;;6185766;23;20269;-83
2022/08/29 11:52:25;;;;;;;0.30;0.30;;;;;;;;;;6187293;23;20176;-84
2022/08/29 11:55:18;;;;;;;2.30;1.60;;;;;;;;;;6187694;23;20203;-84
2022/08/29 11:57:52;;;;;;;0.43;0.43;;;;;;;;;;6187112;23;20179;-86
2022/08/29 12:00:25;;;;;;;0.93;0.93;;;;;;;;;;6188959;23;20178;-83
2022/08/29 12:02:56;;;;;;;5.40;1.43;;;;;;;;;;6187561;23;20178;-84
2022/08/29 12:05:47;;;;;;;1.33;1.13;;;;;;;;;;6212442;23;20184;-85
2022/08/29 12:08:29;;;;;;;0.63;0.63;;;;;;;;;;6187414;23;20200;-84
2022/08/29 12:11:05;;;;;;;0.30;0.30;;;;;;;;;;6187370;23;20189;-86
2022/08/29 12:13:58;;;;;;;2.37;0.73;;;;;;;;;;6216497;23;20240;-84
2022/08/29 12:16:43;;;;;;;1.33;1.20;;;;;;;;;;6183472;23;20182;-85
2022/08/29 12:19:12;;;;;;;0.63;0.63;;;;;;;;;;6214850;23;20175;-86
2022/08/29 12:21:44;;;;;;;0.50;0.50;;;;;;;;;;6188103;23;20179;-84
2022/08/29 12:24:37;;;;;;;0.40;0.40;;;;;;;;;;6187519;23;20179;-85
2022/08/29 12:27:07;;;;;;;4.63;1.43;;;;;;;;;;6187651;23;20231;-85
2022/08/29 12:29:47;;;;;;;1.40;1.10;;;;;;;;;;6187525;23;20178;-84
2022/08/29 12:32:31;;;;;;;0.93;0.93;;;;;;;;;;6213815;23;20191;-85
2022/08/29 12:35:20;;;;;;;0.53;0.53;;;;;;;;;;6182293;23;20276;-83
2022/08/29 12:38:02;;;;;;;0.30;0.30;;;;;;;;;;6189244;23;20175;-83
2022/08/29 12:40:41;;;;;;;0.70;0.70;;;;;;;;;;6187066;23;20181;-83
2022/08/29 12:43:20;;;;;;;1.50;1.07;;;;;;;;;;6186206;23;20275;-86
2022/08/29 12:45:49;;;;;;;1.63;1.43;;;;;;;;;;6187563;23;20176;-84
2022/08/29 12:48:21;;;;;;;1.70;0.97;;;;;;;;;;6186260;23;20208;-85
2022/08/29 12:50:49;;;;;;;1.27;0.97;;;;;;;;;;6187710;23;20452;-84
2022/08/29 12:53:22;;;;;;;1.20;1.00;;;;;;;;;;6188372;23;20182;-83
2022/08/29 12:55:57;;;;;;;0.50;0.50;;;;;;;;;;6186455;23;20183;-83
2022/08/29 12:58:39;;;;;;;0.40;0.40;;;;;;;;;;6186954;23;20418;-83
2022/08/29 13:01:23;;;;;;;0.40;0.40;;;;;;;;;;6187425;23;20230;-83
2022/08/29 13:04:16;;;;;;;0.20;0.20;;;;;;;;;;6188837;23;20193;-82
2022/08/29 13:06:52;;;;;;;0.37;0.30;;;;;;;;;;6184192;23;20296;-82
2022/08/29 13:09:25;;;;;;;0.60;0.60;;;;;;;;;;6190710;23;20177;-82
2022/08/29 13:12:09;;;;;;;1.17;0.80;;;;;;;;;;6191369;23;20231;-82
2022/08/29 13:14:51;;;;;;;0.53;0.53;;;;;;;;;;6217695;23;20173;-82
2022/08/29 13:17:21;;;;;;;2.57;1.33;;;;;;;;;;6190901;23;20168;-83
2022/08/29 13:20:18;;;;;;;0.20;0.20;;;;;;;;;;6190004;23;20283;-83
2022/08/29 13:22:51;;;;;;;0.73;0.60;;;;;;;;;;6127120;23;20265;-84
2022/08/29 13:25:22;;;;;;;0.50;0.50;;;;;;;;;;6189531;23;20204;-84
2022/08/29 13:28:06;;;;;;;;;;;;;;;;;;;;;
2022/08/29 13:30:41;;;;;;;1.27;1.17;;;;;;;;;;6189462;23;20174;-83
2022/08/29 13:33:33;;;;;;;2.57;1.30;;;;;;;;;;6189616;23;20188;-82
2022/08/29 13:36:57;;;;;;;0.80;0.80;;;;;;;;;;6189949;23;20201;-82
2022/08/29 13:39:28;;;;;;;1.30;1.20;;;;;;;;;;6187980;23;20182;-81
2022/08/29 13:42:15;;;;;;;0.70;0.70;;;;;;;;;;6215319;23;20218;-81
2022/08/29 13:45:03;;;;;;;0.50;0.50;;;;;;;;;;6189284;23;20209;-82
2022/08/29 13:47:33;;;;;;;1.50;0.40;;;;;;;;;;6189017;23;20194;-82
2022/08/29 13:50:05;;;;;;;0.47;0.40;;;;;;;;;;6189084;23;20186;-82
2022/08/29 13:52:37;;;;;;;0.60;0.57;;;;;;;;;;6188977;23;20211;-86
2022/08/29 13:55:06;;;;;;;0.97;0.87;;;;;;;;;;6215328;23;20185;-87
2022/08/29 13:57:37;;;;;;;0.63;0.63;;;;;;;;;;6188177;23;20177;-84
2022/08/29 14:00:10;;;;;;;2.93;1.40;;;;;;;;;;6188795;23;20266;-84
2022/08/29 14:02:40;;;;;;;0.90;0.80;;;;;;;;;;6187620;23;20235;-84
2022/08/29 14:05:13;;;;;;;0.60;0.60;;;;;;;;;;6187755;23;20185;-86
2022/08/29 14:07:44;;;;;;;0.47;0.47;;;;;;;;;;6189236;23;20198;-84
2022/08/29 14:10:13;;;;;;;0.70;0.70;;;;;;;;;;6188874;23;20188;-84
2022/08/29 14:12:44;;;;;;;0.37;0.37;;;;;;;;;;6188835;23;20205;-83
2022/08/29 14:15:17;;;;;;;0.37;0.37;;;;;;;;;;6189664;23;20179;-83
2022/08/29 14:17:47;;;;;;;0.93;0.57;;;;;;;;;;6188831;23;20178;-84
2022/08/29 14:20:33;;;;;;;0.20;0.20;;;;;;;;;;6188718;23;20173;-83
2022/08/29 14:23:01;;;;;;;0.40;0.40;;;;;;;;;;6186639;23;20185;-83
2022/08/29 14:25:31;;;;;;;1.60;1.50;;;;;;;;;;6187561;23;20185;-83
2022/08/29 14:28:00;;;;;;;0.57;0.40;;;;;;;;;;6185556;23;20188;-82
2022/08/29 14:30:30;;;;;;;1.67;1.33;;;;;;;;;;6187066;23;20178;-82
2022/08/29 14:32:58;;;;;;;0.93;0.93;;;;;;;;;;6215257;23;20173;-84
2022/08/29 14:35:29;;;;;;;0.30;0.30;;;;;;;;;;6213742;23;20211;-82
2022/08/29 14:38:00;;;;;;;0.53;0.53;;;;;;;;;;6214703;23;20189;-83
2022/08/29 14:40:29;;;;;;;0.53;0.53;;;;;;;;;;6185969;23;20182;-83
2022/08/29 14:42:59;;;;;;;0.73;0.73;;;;;;;;;;6211365;23;20206;-84
2022/08/29 14:45:30;;;;;;;1.37;1.23;;;;;;;;;;6186663;23;20204;-84
2022/08/29 14:47:59;;;;;;;0.43;0.43;;;;;;;;;;6184982;23;20201;-84
2022/08/29 14:50:27;;;;;;;1.20;1.20;;;;;;;;;;6213215;23;20173;-83
2022/08/29 14:52:58;;;;;;;1.90;0.97;;;;;;;;;;6185003;23;20185;-85
2022/08/29 14:55:26;;;;;;;0.20;0.20;;;;;;;;;;6185221;23;20204;-84
2022/08/29 14:57:55;;;;;;;1.53;1.43;;;;;;;;;;6212590;23;20169;-85
2022/08/29 15:00:24;;;;;;;1.40;1.30;;;;;;;;;;6185291;23;20185;-83
2022/08/29 15:02:55;;;;;;;0.77;0.60;;;;;;;;;;6185178;23;20186;-83
2022/08/29 15:05:24;;;;;;;3.10;1.07;;;;;;;;;;6211398;23;20221;-83
2022/08/29 15:07:52;;;;;;;1.47;0.80;;;;;;;;;;6184991;23;20216;-83
2022/08/29 15:10:25;;;;;;;1.20;0.73;;;;;;;;;;6210766;23;20180;-82
2022/08/29 15:12:53;;;;;;;0.50;0.50;;;;;;;;;;6211278;23;20178;-82
2022/08/29 15:15:27;;;;;;;1.43;1.07;;;;;;;;;;6185521;23;20182;-85
2022/08/29 15:17:58;;;;;;;1.33;0.93;;;;;;;;;;6185785;23;20183;-85
2022/08/29 15:20:27;;;;;;;1.50;0.90;;;;;;;;;;6185375;23;20174;-84
2022/08/29 15:23:04;;;;;;;0.20;0.20;;;;;;;;;;6184255;23;20275;-83
2022/08/29 15:25:33;;;;;;;1.43;0.93;;;;;;;;;;6188029;23;20185;-83